Time;durP1;ratioP1;P1;durP2;ratioP2;P2;SDS_P1;SDS_P2;PMS_P1;PMS_P2;Temp;Humidity;BMP_temperature;BMP_pressure;BME280_temperature;BME280_humidity;BME280_pressure;Samples;Min_cycle;Max_cycle;Signal;HPM_P1;HPM_P2
2022/04/30 00:01:20;;;;;;;1.60;1.50;;;19.90;48.00;;;;;;5078463;28;43455;-60
2022/04/30 00:03:49;;;;;;;2.28;1.63;;;19.80;48.00;;;;;;5078261;28;44656;-60
2022/04/30 00:06:17;;;;;;;1.58;1.42;;;19.80;48.00;;;;;;5075005;28;44279;-60
2022/04/30 00:08:44;;;;;;;1.63;1.42;;;19.80;47.90;;;;;;5067607;28;43427;-61
2022/04/30 00:11:13;;;;;;;1.95;1.50;;;19.80;48.00;;;;;;5076460;28;43517;-61
2022/04/30 00:13:40;;;;;;;1.85;1.60;;;19.80;47.90;;;;;;5078378;27;44931;-61
2022/04/30 00:16:07;;;;;;;1.60;1.50;;;19.80;48.00;;;;;;5070202;28;43430;-60
2022/04/30 00:18:36;;;;;;;2.22;1.60;;;19.80;48.00;;;;;;5076833;28;43517;-60
2022/04/30 00:21:05;;;;;;;2.28;1.50;;;19.80;48.10;;;;;;5080491;28;43478;-60
2022/04/30 00:23:32;;;;;;;1.42;1.20;;;19.70;47.90;;;;;;5077104;27;44963;-60
2022/04/30 00:25:59;;;;;;;1.80;1.70;;;19.70;48.00;;;;;;5070175;28;43649;-60
2022/04/30 00:28:27;;;;;;;1.50;1.40;;;19.70;47.90;;;;;;5073200;28;43526;-60
2022/04/30 00:30:55;;;;;;;1.55;1.45;;;19.70;48.00;;;;;;5075430;28;43521;-60
2022/04/30 00:33:23;;;;;;;2.50;1.67;;;19.70;48.00;;;;;;5075727;28;43865;-61
2022/04/30 00:35:52;;;;;;;1.40;1.30;;;19.70;48.00;;;;;;5068253;28;43664;-60
2022/04/30 00:38:19;;;;;;;1.75;1.65;;;19.70;48.10;;;;;;5070981;28;43399;-60
2022/04/30 00:40:47;;;;;;;2.42;1.40;;;19.70;48.00;;;;;;5075756;28;43471;-60
2022/04/30 00:43:14;;;;;;;1.40;1.30;;;19.60;47.90;;;;;;5075043;27;44699;-60
2022/04/30 00:45:48;;;;;;;1.30;1.20;;;19.60;47.90;;;;;;5068781;28;43501;-60
2022/04/30 00:48:16;;;;;;;1.20;1.20;;;19.60;47.90;;;;;;5069926;28;44102;-60
2022/04/30 00:50:43;;;;;;;1.50;1.40;;;19.60;47.90;;;;;;5076142;28;43589;-60
2022/04/30 00:53:15;;;;;;;1.17;1.17;;;19.60;47.90;;;;;;5073326;28;45049;-60
2022/04/30 00:55:44;;;;;;;1.50;1.40;;;19.50;47.90;;;;;;5073613;28;43987;-61
2022/04/30 00:58:14;;;;;;;1.48;1.38;;;19.60;47.90;;;;;;5080963;28;43421;-60
2022/04/30 01:00:43;;;;;;;1.27;1.27;;;19.50;47.90;;;;;;5076010;28;43553;-60
2022/04/30 01:03:22;;;;;;;1.83;1.50;;;19.50;47.90;;;;;;5051770;28;43941;-60
2022/04/30 01:06:06;;;;;;;1.30;1.20;;;19.50;47.90;;;;;;5072800;28;43522;-60
2022/04/30 01:08:33;;;;;;;1.45;1.27;;;19.50;47.90;;;;;;5078115;28;43446;-60
2022/04/30 01:11:03;;;;;;;1.67;1.40;;;19.50;47.90;;;;;;5063414;28;44001;-60
2022/04/30 01:13:36;;;;;;;1.25;1.15;;;19.50;47.80;;;;;;5066235;28;43827;-60
2022/04/30 01:16:06;;;;;;;1.75;1.30;;;19.50;47.80;;;;;;5068413;28;43954;-60
2022/04/30 01:18:35;;;;;;;1.30;1.30;;;19.40;47.80;;;;;;5077469;27;43607;-60
2022/04/30 01:21:22;;;;;;;1.83;1.38;;;19.50;47.90;;;;;;5071825;28;43553;-60
2022/04/30 01:23:51;;;;;;;1.50;1.40;;;19.40;48.20;;;;;;5078739;28;44712;-60
2022/04/30 01:26:19;;;;;;;1.50;1.40;;;19.40;47.90;;;;;;5076115;27;43467;-60
2022/04/30 01:28:47;;;;;;;1.35;1.25;;;19.40;47.90;;;;;;5075877;28;43519;-60
2022/04/30 01:39:33;;;;;;;1.35;1.25;;;19.30;47.90;;;;;;5063241;28;43530;-60
2022/04/30 01:42:12;;;;;;;1.58;1.40;;;19.30;48.10;;;;;;5067044;28;43470;-61
2022/04/30 01:44:41;;;;;;;1.30;1.20;;;19.30;48.00;;;;;;5078985;28;44067;-60
2022/04/30 01:47:11;;;;;;;2.10;1.42;;;19.30;47.90;;;;;;5073648;28;43528;-60
2022/04/30 01:49:39;;;;;;;1.25;1.25;;;19.30;48.00;;;;;;5075112;27;43410;-61
2022/04/30 01:52:07;;;;;;;1.20;1.17;;;19.20;47.90;;;;;;5078498;28;43496;-60
2022/04/30 01:54:36;;;;;;;1.20;1.10;;;19.20;47.90;;;;;;5080078;28;43811;-60
2022/04/30 01:57:04;;;;;;;1.20;1.20;;;19.20;47.90;;;;;;5070498;28;43450;-60
2022/04/30 01:59:32;;;;;;;0.80;0.80;;;19.20;47.90;;;;;;5069563;28;43417;-60
2022/04/30 02:02:01;;;;;;;1.40;1.30;;;19.20;48.00;;;;;;5080603;27;43559;-60
2022/04/30 02:04:31;;;;;;;1.30;1.20;;;19.20;47.90;;;;;;5078847;27;44929;-61
2022/04/30 02:07:01;;;;;;;1.30;1.20;;;19.20;48.00;;;;;;5064749;28;43635;-60
2022/04/30 02:09:30;;;;;;;1.30;1.20;;;19.20;48.00;;;;;;5067718;28;43391;-60
2022/04/30 02:11:59;;;;;;;1.20;1.10;;;19.20;48.00;;;;;;5080615;28;43478;-60
2022/04/30 02:14:30;;;;;;;1.58;1.20;;;19.10;48.00;;;;;;5076964;27;44969;-60
2022/04/30 02:17:09;;;;;;;1.13;1.10;;;19.10;48.00;;;;;;5069181;28;43547;-60
2022/04/30 02:22:28;;;;;;;1.33;1.23;;;19.10;48.10;;;;;;5093040;27;43587;-60
2022/04/30 02:24:59;;;;;;;1.00;1.00;;;19.10;48.00;;;;;;5074039;28;43915;-61
2022/04/30 02:27:29;;;;;;;1.50;1.40;;;19.00;48.00;;;;;;5071523;28;44188;-60
2022/04/30 02:29:56;;;;;;;1.25;1.08;;;19.10;48.10;;;;;;5084216;28;43461;-60
2022/04/30 02:32:24;;;;;;;1.10;1.10;;;19.00;48.00;;;;;;5079039;28;43464;-60
2022/04/30 02:34:51;;;;;;;1.20;1.20;;;19.00;48.10;;;;;;5073840;28;43790;-60
2022/04/30 02:37:19;;;;;;;1.20;1.10;;;19.00;48.00;;;;;;5071687;27;43685;-60
2022/04/30 02:39:46;;;;;;;1.30;1.20;;;19.00;48.10;;;;;;5080473;28;44101;-60
2022/04/30 02:42:14;;;;;;;1.00;1.00;;;19.00;48.10;;;;;;5076437;28;43442;-60
2022/04/30 02:44:41;;;;;;;1.00;0.98;;;19.00;48.10;;;;;;5072609;28;43735;-60
2022/04/30 02:47:09;;;;;;;1.15;1.10;;;19.00;48.10;;;;;;5070070;27;43988;-60
2022/04/30 02:49:38;;;;;;;1.45;1.10;;;19.00;48.20;;;;;;5078576;28;43442;-61
2022/04/30 02:52:05;;;;;;;1.10;1.00;;;18.90;48.10;;;;;;5075156;28;43458;-59
2022/04/30 02:54:34;;;;;;;1.40;1.10;;;18.90;48.10;;;;;;5073200;28;44714;-60
2022/04/30 02:57:01;;;;;;;1.42;1.10;;;18.90;48.20;;;;;;5083746;27;43778;-60
2022/04/30 03:02:28;;;;;;;0.90;0.90;;;18.90;48.20;;;;;;5081765;27;43617;-60
2022/04/30 03:04:56;;;;;;;1.02;1.02;;;18.90;48.20;;;;;;5071906;27;44077;-60
2022/04/30 03:07:25;;;;;;;1.10;1.10;;;18.80;48.20;;;;;;5083986;27;43562;-60
2022/04/30 03:09:52;;;;;;;1.10;1.10;;;18.80;48.20;;;;;;5076218;28;43520;-60
2022/04/30 03:12:21;;;;;;;0.80;0.80;;;18.80;48.20;;;;;;5073217;28;43673;-60
2022/04/30 03:14:48;;;;;;;1.23;1.08;;;18.80;48.20;;;;;;5069532;28;44038;-60
2022/04/30 03:22:48;;;;;;;1.08;0.90;;;18.80;48.20;;;;;;5072367;28;43460;-60
2022/04/30 03:25:17;;;;;;;1.00;1.00;;;18.80;48.30;;;;;;5081390;28;44050;-60
2022/04/30 03:27:44;;;;;;;0.93;0.93;;;18.80;48.30;;;;;;5076639;28;43367;-60
2022/04/30 03:30:13;;;;;;;1.20;1.10;;;18.70;48.20;;;;;;5075112;28;43412;-60
2022/04/30 03:32:42;;;;;;;1.17;1.08;;;18.70;48.30;;;;;;5071966;28;43611;-60
2022/04/30 03:35:10;;;;;;;1.10;0.93;;;18.70;48.20;;;;;;5083720;27;44885;-61
2022/04/30 03:37:38;;;;;;;1.25;1.15;;;18.70;48.30;;;;;;5071243;28;43510;-60
2022/04/30 03:40:06;;;;;;;1.45;0.90;;;18.70;48.30;;;;;;5070725;27;43565;-60
2022/04/30 03:42:36;;;;;;;0.90;0.90;;;18.70;48.30;;;;;;5052919;28;43462;-60
2022/04/30 03:45:04;;;;;;;1.10;1.00;;;18.70;48.30;;;;;;5080502;28;45919;-60
2022/04/30 03:47:32;;;;;;;1.20;1.10;;;18.70;48.30;;;;;;5074902;28;43775;-60
2022/04/30 03:49:59;;;;;;;1.20;1.10;;;18.60;48.30;;;;;;5071795;27;43451;-61
2022/04/30 03:52:27;;;;;;;0.93;0.93;;;18.60;48.30;;;;;;5069231;28;43470;-60
2022/04/30 03:54:55;;;;;;;0.95;0.95;;;18.60;48.30;;;;;;5080181;28;44675;-60
2022/04/30 03:57:24;;;;;;;1.75;1.10;;;18.60;48.40;;;;;;5072772;28;43682;-60
2022/04/30 03:59:52;;;;;;;0.70;0.70;;;18.60;48.30;;;;;;5072211;27;44035;-60
2022/04/30 04:02:19;;;;;;;1.08;1.08;;;18.60;48.30;;;;;;5083801;27;43514;-60
2022/04/30 04:04:47;;;;;;;1.33;1.23;;;18.60;48.40;;;;;;5078028;28;45395;-60
2022/04/30 04:07:16;;;;;;;1.20;1.10;;;18.60;48.40;;;;;;5071881;28;43928;-60
2022/04/30 04:09:43;;;;;;;1.38;1.20;;;18.50;48.40;;;;;;5069768;27;43483;-60
2022/04/30 04:12:10;;;;;;;1.20;1.10;;;18.50;48.40;;;;;;5081706;28;44019;-60
2022/04/30 04:17:39;;;;;;;1.05;1.00;;;18.50;48.40;;;;;;5068672;28;44103;-60
2022/04/30 04:20:11;;;;;;;1.67;1.08;;;18.50;48.50;;;;;;5080819;28;43463;-60
2022/04/30 04:22:38;;;;;;;1.27;1.13;;;18.50;48.50;;;;;;5077440;28;43422;-59
2022/04/30 04:27:55;;;;;;;1.02;0.93;;;18.50;48.50;;;;;;5072205;28;43698;-60
2022/04/30 04:30:23;;;;;;;0.98;0.98;;;18.40;48.50;;;;;;5083496;28;43446;-60
2022/04/30 04:32:53;;;;;;;0.98;0.85;;;18.50;48.50;;;;;;5074798;28;43475;-60
2022/04/30 04:35:21;;;;;;;1.00;0.90;;;18.50;48.50;;;;;;5072486;27;45058;-60
2022/04/30 04:37:49;;;;;;;1.33;1.25;;;18.40;48.50;;;;;;5070961;28;43911;-60
2022/04/30 04:40:18;;;;;;;0.90;0.90;;;18.40;48.50;;;;;;5075305;28;43512;-59
2022/04/30 04:42:45;;;;;;;1.35;1.25;;;18.40;48.50;;;;;;5074683;28;43979;-60
2022/04/30 04:45:14;;;;;;;1.30;1.20;;;18.40;48.50;;;;;;5069965;28;44176;-60
2022/04/30 04:47:45;;;;;;;1.20;1.10;;;18.40;48.50;;;;;;5072681;28;43724;-60
2022/04/30 04:50:13;;;;;;;0.98;0.98;;;18.40;48.50;;;;;;5071926;28;43449;-60
2022/04/30 04:52:41;;;;;;;1.00;1.00;;;18.40;48.50;;;;;;5073937;28;43489;-59
2022/04/30 04:55:10;;;;;;;1.30;1.20;;;18.40;48.50;;;;;;5071886;28;43807;-60
2022/04/30 04:57:37;;;;;;;1.00;1.00;;;18.40;48.50;;;;;;5083556;28;43408;-60
2022/04/30 05:00:07;;;;;;;0.80;0.80;;;18.40;48.50;;;;;;5075595;28;43530;-60
2022/04/30 05:02:35;;;;;;;1.35;1.27;;;18.40;48.50;;;;;;5073294;28;43481;-61
2022/04/30 05:05:03;;;;;;;1.10;1.00;;;18.40;48.60;;;;;;5067458;28;44062;-60
2022/04/30 05:07:31;;;;;;;4.25;1.50;;;18.30;48.60;;;;;;5081213;28;43471;-60
2022/04/30 05:09:58;;;;;;;1.20;1.10;;;18.30;48.60;;;;;;5072324;28;43485;-60
2022/04/30 05:12:26;;;;;;;0.80;0.80;;;18.30;48.60;;;;;;5070881;28;43583;-60
2022/04/30 05:14:53;;;;;;;2.00;1.13;;;18.30;48.60;;;;;;5067229;28;44073;-60
2022/04/30 05:17:21;;;;;;;1.70;1.15;;;18.30;48.70;;;;;;5073645;28;43708;-60
2022/04/30 05:19:48;;;;;;;1.50;1.40;;;18.30;48.70;;;;;;5069080;28;43418;-60
2022/04/30 05:22:16;;;;;;;1.73;1.10;;;18.30;48.70;;;;;;5071400;28;43600;-60
2022/04/30 05:24:43;;;;;;;1.30;0.98;;;18.20;48.80;;;;;;5055989;28;44754;-60
2022/04/30 05:27:11;;;;;;;2.35;1.13;;;18.30;48.80;;;;;;5079584;28;43479;-61
2022/04/30 05:29:39;;;;;;;1.90;1.20;;;18.30;48.90;;;;;;5070960;28;43481;-60
2022/04/30 05:32:07;;;;;;;3.13;1.08;;;18.30;48.90;;;;;;5068311;28;43543;-60
2022/04/30 05:34:34;;;;;;;1.38;1.27;;;18.30;48.80;;;;;;5082292;28;45221;-61
2022/04/30 05:37:02;;;;;;;1.17;1.08;;;18.30;48.80;;;;;;5077461;27;43952;-60
2022/04/30 05:39:29;;;;;;;1.00;1.00;;;18.30;48.80;;;;;;5066315;28;43376;-60
2022/04/30 05:41:57;;;;;;;1.20;1.10;;;18.30;48.80;;;;;;5067941;28;43460;-60
2022/04/30 05:44:24;;;;;;;2.60;1.15;;;18.20;48.70;;;;;;5057645;28;43801;-60
2022/04/30 05:46:52;;;;;;;3.03;1.33;;;18.30;48.90;;;;;;5076938;28;44000;-60
2022/04/30 05:49:19;;;;;;;1.20;1.10;;;18.20;48.80;;;;;;5070116;27;43522;-60
2022/04/30 05:51:46;;;;;;;1.45;1.13;;;18.20;48.80;;;;;;5072332;28;43461;-60
2022/04/30 05:54:14;;;;;;;1.90;0.90;;;18.20;48.80;;;;;;5062340;28;45859;-60
2022/04/30 05:56:41;;;;;;;1.23;1.13;;;18.20;48.80;;;;;;5072551;28;43763;-60
2022/04/30 05:59:08;;;;;;;1.23;1.10;;;18.20;48.80;;;;;;5066940;28;43996;-60
2022/04/30 06:01:36;;;;;;;1.10;1.10;;;18.20;48.80;;;;;;5082470;28;43478;-59
2022/04/30 06:04:04;;;;;;;1.63;1.00;;;18.20;49.00;;;;;;5082479;28;44964;-60
2022/04/30 06:06:32;;;;;;;1.60;1.50;;;18.20;49.10;;;;;;5073780;27;43557;-60
2022/04/30 06:08:59;;;;;;;4.07;1.60;;;18.20;49.10;;;;;;5069617;28;43484;-60
2022/04/30 06:11:26;;;;;;;1.70;1.60;;;18.30;49.10;;;;;;5079487;28;43487;-61
2022/04/30 06:13:54;;;;;;;1.70;1.60;;;18.40;49.00;;;;;;5081011;28;43901;-60
2022/04/30 06:16:21;;;;;;;1.67;1.55;;;18.50;49.00;;;;;;5069705;28;43568;-60
2022/04/30 06:18:49;;;;;;;1.90;1.65;;;18.60;48.90;;;;;;5081856;28;43430;-60
2022/04/30 06:21:36;;;;;;;2.97;1.77;;;18.80;48.80;;;;;;5078423;28;43396;-61
2022/04/30 06:24:04;;;;;;;2.58;1.58;;;19.00;48.80;;;;;;5076905;28;43802;-61
2022/04/30 06:26:33;;;;;;;1.73;1.63;;;19.10;48.50;;;;;;5068643;28;44166;-61
2022/04/30 06:29:01;;;;;;;3.28;1.70;;;19.30;48.20;;;;;;5080285;28;43432;-61
2022/04/30 06:31:29;;;;;;;1.63;1.52;;;19.50;48.10;;;;;;5078216;28;43702;-60
2022/04/30 06:33:56;;;;;;;2.85;1.48;;;19.60;47.90;;;;;;5073539;28;45010;-61
2022/04/30 06:36:24;;;;;;;1.80;1.70;;;19.80;47.80;;;;;;5079901;28;43522;-61
2022/04/30 06:38:52;;;;;;;1.55;1.45;;;20.00;47.50;;;;;;5078449;28;43430;-60
2022/04/30 06:41:21;;;;;;;2.83;1.60;;;20.10;47.40;;;;;;5079111;28;44083;-61
2022/04/30 06:43:52;;;;;;;3.38;1.35;;;20.20;48.10;;;;;;5070940;27;44031;-60
2022/04/30 06:46:20;;;;;;;3.08;1.45;;;20.40;47.80;;;;;;5072086;28;43536;-61
2022/04/30 06:48:47;;;;;;;1.67;1.58;;;20.50;47.10;;;;;;5077192;28;43433;-61
2022/04/30 06:51:15;;;;;;;1.35;1.25;;;20.70;46.90;;;;;;5064340;28;43447;-61
2022/04/30 06:59:17;;;;;;;3.00;1.58;;;21.20;46.30;;;;;;5072889;28;43388;-60
2022/04/30 07:01:59;;;;;;;2.80;1.67;;;21.40;46.10;;;;;;5061666;28;43438;-60
2022/04/30 07:04:29;;;;;;;2.10;1.55;;;21.50;46.10;;;;;;5070343;28;44061;-61
2022/04/30 07:06:57;;;;;;;3.47;1.40;;;21.60;45.90;;;;;;5079867;28;43449;-61
2022/04/30 07:09:28;;;;;;;1.92;1.33;;;21.70;45.70;;;;;;5072272;28;43454;-62
2022/04/30 07:11:55;;;;;;;1.58;1.42;;;21.80;45.70;;;;;;5064511;28;43523;-61
2022/04/30 07:14:22;;;;;;;1.83;1.60;;;21.80;45.60;;;;;;5048638;28;43894;-60
2022/04/30 07:16:50;;;;;;;2.17;1.55;;;21.80;45.50;;;;;;5047736;28;43679;-61
2022/04/30 07:19:17;;;;;;;2.60;1.50;;;21.80;45.40;;;;;;5048345;28;43427;-61
2022/04/30 07:21:45;;;;;;;2.78;1.30;;;21.80;45.60;;;;;;5066856;28;43528;-61
2022/04/30 07:24:12;;;;;;;3.90;1.90;;;21.80;45.60;;;;;;5046594;28;44666;-60
2022/04/30 07:26:40;;;;;;;2.70;1.73;;;21.80;45.70;;;;;;5040711;28;43954;-60
2022/04/30 07:29:07;;;;;;;2.47;1.58;;;21.70;45.70;;;;;;5051047;28;43427;-61
2022/04/30 07:31:35;;;;;;;4.15;1.65;;;21.70;45.80;;;;;;5049585;28;43441;-61
2022/04/30 07:34:04;;;;;;;3.83;1.40;;;21.70;45.90;;;;;;5049601;28;43878;-61
2022/04/30 07:36:31;;;;;;;1.60;1.30;;;21.60;45.90;;;;;;5048829;28;43444;-60
2022/04/30 07:38:59;;;;;;;3.40;1.50;;;21.60;46.00;;;;;;5049161;28;43558;-61
2022/04/30 07:41:26;;;;;;;2.13;1.33;;;21.60;46.00;;;;;;5037083;28;43519;-60
2022/04/30 07:43:54;;;;;;;1.85;1.50;;;21.50;46.00;;;;;;5047750;28;43804;-60
2022/04/30 07:46:24;;;;;;;3.88;1.75;;;21.50;46.00;;;;;;5045802;28;43710;-60
2022/04/30 07:48:52;;;;;;;2.63;1.40;;;21.50;46.10;;;;;;5047662;28;43434;-61
2022/04/30 07:51:33;;;;;;;1.92;1.50;;;21.50;46.20;;;;;;5047355;28;44061;-60
2022/04/30 07:54:02;;;;;;;3.53;1.67;;;21.40;46.10;;;;;;5046853;28;43823;-61
2022/04/30 07:56:29;;;;;;;2.45;1.40;;;21.40;46.10;;;;;;5047205;28;43675;-61
2022/04/30 07:58:57;;;;;;;2.80;1.60;;;21.30;46.10;;;;;;5040292;28;44094;-62
2022/04/30 08:01:24;;;;;;;2.30;1.40;;;21.40;46.30;;;;;;5046706;28;43499;-60
2022/04/30 08:03:52;;;;;;;1.52;1.38;;;21.30;46.30;;;;;;5045482;28;44079;-60
2022/04/30 08:06:19;;;;;;;1.60;1.50;;;21.30;46.40;;;;;;5046929;28;44983;-61
2022/04/30 08:08:50;;;;;;;1.88;1.40;;;21.20;46.40;;;;;;5049588;28;44045;-60
2022/04/30 08:11:24;;;;;;;2.80;1.52;;;21.20;46.50;;;;;;5047179;28;43670;-62
2022/04/30 08:13:53;;;;;;;2.45;1.50;;;21.20;46.50;;;;;;5026537;28;43706;-60
2022/04/30 08:16:28;;;;;;;2.75;1.50;;;21.20;46.60;;;;;;5029725;28;43533;-61
2022/04/30 08:18:57;;;;;;;1.80;1.63;;;21.20;46.60;;;;;;5025387;28;43535;-61
2022/04/30 08:21:27;;;;;;;1.65;1.50;;;21.10;46.60;;;;;;5016785;28;44350;-61
2022/04/30 08:23:55;;;;;;;2.38;1.48;;;21.10;46.60;;;;;;5035600;28;44214;-60
2022/04/30 08:26:26;;;;;;;1.85;1.50;;;21.10;46.70;;;;;;5023466;28;43435;-61
2022/04/30 08:28:54;;;;;;;1.70;1.60;;;21.10;46.70;;;;;;5038772;28;43499;-61
2022/04/30 08:31:25;;;;;;;1.58;1.40;;;21.10;46.80;;;;;;5039906;28;44019;-60
2022/04/30 08:33:53;;;;;;;2.33;1.50;;;21.00;46.70;;;;;;5035650;28;43871;-61
2022/04/30 08:36:22;;;;;;;2.05;1.52;;;21.00;46.80;;;;;;5029903;28;43473;-60
2022/04/30 08:38:50;;;;;;;1.38;1.27;;;21.00;46.90;;;;;;5040879;28;43534;-60
2022/04/30 08:41:18;;;;;;;1.75;1.50;;;20.90;47.00;;;;;;5038828;28;43503;-60
2022/04/30 08:43:48;;;;;;;1.48;1.38;;;20.90;47.00;;;;;;5031869;28;44011;-60
2022/04/30 08:46:20;;;;;;;2.75;1.58;;;20.90;47.10;;;;;;5025341;28;44163;-60
2022/04/30 08:48:48;;;;;;;1.60;1.50;;;20.80;47.10;;;;;;5039555;28;43380;-61
2022/04/30 08:51:16;;;;;;;3.40;1.80;;;20.80;47.20;;;;;;5030995;28;43494;-61
2022/04/30 08:53:44;;;;;;;1.92;1.58;;;20.80;47.20;;;;;;5033263;28;44021;-60
2022/04/30 08:56:12;;;;;;;2.88;1.77;;;20.80;47.30;;;;;;5026422;28;43487;-60
2022/04/30 08:58:40;;;;;;;2.40;1.67;;;20.80;47.30;;;;;;5028679;28;43443;-60
2022/04/30 09:01:10;;;;;;;2.65;1.58;;;20.70;47.20;;;;;;5037947;28;43598;-61
2022/04/30 09:03:38;;;;;;;1.88;1.70;;;20.70;47.40;;;;;;5022464;28;43816;-60
2022/04/30 09:06:06;;;;;;;1.60;1.50;;;20.70;47.50;;;;;;5038762;28;43405;-60
2022/04/30 09:08:35;;;;;;;1.85;1.58;;;20.60;47.40;;;;;;5034490;28;43361;-60
2022/04/30 09:11:06;;;;;;;3.30;2.00;;;20.70;47.50;;;;;;5035347;28;43466;-61
2022/04/30 09:13:47;;;;;;;1.52;1.42;;;20.60;47.50;;;;;;5061896;28;44669;-60
2022/04/30 09:16:23;;;;;;;3.00;1.60;;;20.60;47.50;;;;;;5073324;28;43582;-60
2022/04/30 09:18:52;;;;;;;1.60;1.50;;;20.60;47.60;;;;;;5065680;28;43378;-60
2022/04/30 09:21:20;;;;;;;1.65;1.55;;;20.50;47.60;;;;;;5070220;28;43551;-60
2022/04/30 09:23:48;;;;;;;1.60;1.35;;;20.60;48.10;;;;;;5065967;28;44699;-60
2022/04/30 09:26:15;;;;;;;2.50;1.83;;;20.50;47.70;;;;;;5075685;28;44012;-60
2022/04/30 09:28:46;;;;;;;2.08;1.50;;;20.50;47.80;;;;;;5078345;28;43431;-60
2022/04/30 09:31:18;;;;;;;1.90;1.70;;;20.50;47.80;;;;;;5062443;28;43515;-60
2022/04/30 09:33:49;;;;;;;1.70;1.60;;;20.50;48.00;;;;;;5069610;28;44381;-60
2022/04/30 09:39:13;;;;;;;1.50;1.40;;;20.40;47.90;;;;;;5069783;28;43426;-60
2022/04/30 09:41:40;;;;;;;2.75;1.60;;;20.40;48.00;;;;;;5068982;28;43525;-60
2022/04/30 09:44:10;;;;;;;2.75;1.83;;;20.40;48.00;;;;;;5071461;28;43751;-61
2022/04/30 09:46:38;;;;;;;2.22;1.60;;;20.40;48.00;;;;;;5078020;28;43506;-60
2022/04/30 09:54:42;;;;;;;3.00;1.67;;;20.30;48.10;;;;;;5073778;28;44976;-60
2022/04/30 09:57:14;;;;;;;1.92;1.60;;;20.30;48.20;;;;;;5068355;28;43696;-61
2022/04/30 09:59:43;;;;;;;1.63;1.52;;;20.30;48.20;;;;;;5069111;28;43454;-60
2022/04/30 10:02:14;;;;;;;3.13;1.95;;;20.30;48.20;;;;;;5069169;28;43520;-60
2022/04/30 10:04:44;;;;;;;2.25;2.05;;;20.30;48.30;;;;;;5089301;27;44706;-60
2022/04/30 10:07:18;;;;;;;2.33;2.03;;;20.30;48.30;;;;;;5078317;27;45097;-62
2022/04/30 10:10:16;;;;;;;2.10;2.00;;;20.30;48.30;;;;;;5068521;28;43471;-60
2022/04/30 10:12:56;;;;;;;2.78;1.85;;;20.30;48.20;;;;;;5074264;27;43458;-60
2022/04/30 10:15:42;;;;;;;3.30;2.03;;;20.30;48.40;;;;;;5070241;28;44667;-61
2022/04/30 10:18:10;;;;;;;2.30;2.13;;;20.20;48.30;;;;;;5066726;27;43860;-60
2022/04/30 10:20:37;;;;;;;3.75;2.00;;;20.20;48.30;;;;;;5076912;28;43469;-61
2022/04/30 10:23:06;;;;;;;2.03;1.88;;;20.20;48.40;;;;;;5077214;28;43541;-61
2022/04/30 10:25:35;;;;;;;2.08;1.85;;;20.30;48.50;;;;;;5074569;28;45032;-61
2022/04/30 10:28:05;;;;;;;2.25;1.95;;;20.30;48.50;;;;;;5077222;27;43519;-61
2022/04/30 10:30:34;;;;;;;2.10;1.90;;;20.20;48.40;;;;;;5071022;28;43394;-60
2022/04/30 10:33:03;;;;;;;2.67;2.20;;;20.20;48.50;;;;;;5076072;28;43509;-60
2022/04/30 10:35:43;;;;;;;2.10;2.00;;;20.20;48.50;;;;;;5081843;27;44117;-61
2022/04/30 10:38:15;;;;;;;3.13;2.20;;;20.20;48.50;;;;;;5075133;28;44012;-60
2022/04/30 10:40:45;;;;;;;3.40;2.05;;;20.20;48.30;;;;;;5081061;28;43411;-60
2022/04/30 10:43:19;;;;;;;2.70;2.22;;;20.20;48.30;;;;;;5078501;28;43549;-60
2022/04/30 10:45:46;;;;;;;4.82;2.50;;;20.20;48.40;;;;;;5062060;28;44994;-60
2022/04/30 10:48:17;;;;;;;3.67;2.00;;;20.20;48.30;;;;;;5078838;28;43976;-61
2022/04/30 10:50:45;;;;;;;2.13;1.92;;;20.20;48.40;;;;;;5072153;27;43378;-60
2022/04/30 10:53:14;;;;;;;2.38;1.92;;;20.20;48.40;;;;;;5074785;28;43472;-61
2022/04/30 10:55:43;;;;;;;1.83;1.70;;;20.20;48.40;;;;;;5068779;28;44036;-61
2022/04/30 10:58:10;;;;;;;4.03;2.00;;;20.20;48.40;;;;;;5075955;28;43413;-61
2022/04/30 11:00:38;;;;;;;3.33;2.03;;;20.20;48.50;;;;;;5080175;27;43456;-60
2022/04/30 11:03:10;;;;;;;2.30;2.00;;;20.20;48.50;;;;;;5083341;27;43643;-61
2022/04/30 11:05:43;;;;;;;2.03;1.92;;;20.20;48.50;;;;;;5078635;28;44979;-61
2022/04/30 11:08:11;;;;;;;2.90;1.98;;;20.20;48.50;;;;;;5079894;28;43709;-61
2022/04/30 11:10:52;;;;;;;1.85;1.75;;;20.10;48.40;;;;;;5078645;27;43565;-61
2022/04/30 11:13:20;;;;;;;2.88;1.90;;;20.20;48.50;;;;;;5061800;28;43437;-61
2022/04/30 11:15:48;;;;;;;2.67;2.03;;;20.10;48.40;;;;;;5087862;27;44068;-60
2022/04/30 11:18:19;;;;;;;2.10;1.90;;;20.20;48.40;;;;;;5079457;28;43497;-61
2022/04/30 11:20:47;;;;;;;;;;;20.20;48.40;;;;;;5076668;28;43491;-60
2022/04/30 11:23:23;;;;;;;2.17;1.98;;;20.10;48.50;;;;;;5069513;28;43965;-60
2022/04/30 11:25:51;;;;;;;2.17;1.95;;;20.10;48.70;;;;;;5078531;28;44067;-60
2022/04/30 11:28:18;;;;;;;2.17;1.83;;;20.20;48.80;;;;;;5070994;28;43701;-60
2022/04/30 11:30:47;;;;;;;3.10;2.05;;;20.20;48.60;;;;;;5078015;27;43444;-61
2022/04/30 11:33:14;;;;;;;2.55;1.92;;;20.20;48.50;;;;;;5070789;28;43495;-61
2022/04/30 11:35:53;;;;;;;2.10;1.90;;;20.20;48.40;;;;;;5080920;28;43816;-61
2022/04/30 11:38:20;;;;;;;2.10;2.00;;;20.20;48.30;;;;;;5071299;28;43978;-60
2022/04/30 11:40:47;;;;;;;2.83;1.88;;;20.20;48.20;;;;;;5070120;28;43451;-60
2022/04/30 11:43:23;;;;;;;2.30;2.10;;;20.20;48.30;;;;;;5072032;28;44078;-61
2022/04/30 11:45:59;;;;;;;2.00;1.90;;;20.30;48.30;;;;;;5077603;28;43799;-60
2022/04/30 11:48:31;;;;;;;2.13;2.00;;;20.30;48.20;;;;;;5073603;28;44013;-61
2022/04/30 11:50:58;;;;;;;1.60;1.50;;;20.30;48.10;;;;;;5068818;28;43484;-60
2022/04/30 11:53:27;;;;;;;1.90;1.80;;;20.30;48.10;;;;;;5067454;28;43502;-60
2022/04/30 11:55:54;;;;;;;2.17;1.98;;;20.30;48.00;;;;;;5083606;28;44273;-61
2022/04/30 11:58:22;;;;;;;3.05;1.90;;;20.30;48.00;;;;;;5073656;28;43482;-60
2022/04/30 12:01:22;;;;;;;1.80;1.70;;;20.30;48.10;;;;;;5080906;28;43414;-61
2022/04/30 12:04:00;;;;;;;1.98;1.75;;;20.30;48.20;;;;;;5070246;28;43484;-60
2022/04/30 12:06:28;;;;;;;1.70;1.60;;;20.30;48.00;;;;;;5074655;28;44998;-61
2022/04/30 12:08:56;;;;;;;2.65;1.70;;;20.30;48.20;;;;;;5066284;28;43585;-61
2022/04/30 12:11:24;;;;;;;4.40;1.60;;;20.30;48.10;;;;;;5077763;28;43403;-61
2022/04/30 12:14:07;;;;;;;1.63;1.52;;;20.30;48.10;;;;;;5072659;28;43541;-61
2022/04/30 12:16:37;;;;;;;1.88;1.77;;;20.40;48.20;;;;;;5062945;28;44036;-61
2022/04/30 12:24:41;;;;;;;1.80;1.70;;;20.40;48.10;;;;;;5070008;28;43430;-61
2022/04/30 12:27:10;;;;;;;1.90;1.80;;;20.40;48.10;;;;;;5066288;28;44042;-61
2022/04/30 12:29:37;;;;;;;2.75;2.10;;;20.40;48.10;;;;;;5083094;28;44047;-61
2022/04/30 12:32:07;;;;;;;2.33;2.13;;;20.40;48.10;;;;;;5076790;28;43450;-61
2022/04/30 12:34:41;;;;;;;2.13;1.92;;;20.40;48.10;;;;;;5070030;28;43603;-61
2022/04/30 12:37:09;;;;;;;1.70;1.60;;;20.40;48.10;;;;;;5068637;27;44797;-61
2022/04/30 12:39:37;;;;;;;1.90;1.80;;;20.50;48.70;;;;;;5079112;27;43958;-62
2022/04/30 12:42:09;;;;;;;1.80;1.70;;;20.40;47.90;;;;;;5076530;28;43493;-61
2022/04/30 12:44:37;;;;;;;2.78;1.73;;;20.50;48.00;;;;;;5074303;28;43421;-61
2022/04/30 12:47:05;;;;;;;1.85;1.75;;;20.50;47.90;;;;;;5069949;27;44648;-62
2022/04/30 12:49:33;;;;;;;2.33;1.60;;;20.50;47.90;;;;;;5079225;28;44098;-61
2022/04/30 12:52:00;;;;;;;1.88;1.67;;;20.60;48.00;;;;;;5075372;28;43464;-61
2022/04/30 12:54:28;;;;;;;2.92;1.92;;;20.60;48.00;;;;;;5072934;28;43567;-61
2022/04/30 12:57:05;;;;;;;2.38;1.88;;;20.60;48.00;;;;;;5066900;28;44917;-61
2022/04/30 12:59:33;;;;;;;1.60;1.50;;;20.60;48.10;;;;;;5073701;28;43467;-61
2022/04/30 13:02:01;;;;;;;2.10;1.90;;;20.60;48.00;;;;;;5072966;28;43348;-61
2022/04/30 13:04:29;;;;;;;1.60;1.50;;;20.60;48.10;;;;;;5072135;27;43511;-61
2022/04/30 13:06:57;;;;;;;2.30;1.70;;;20.70;48.10;;;;;;5078947;28;44719;-61
2022/04/30 13:14:56;;;;;;;1.60;1.50;;;20.70;48.10;;;;;;5061840;28;43470;-61
2022/04/30 13:17:24;;;;;;;1.60;1.50;;;20.70;48.10;;;;;;5072170;28;43789;-61
2022/04/30 13:19:53;;;;;;;1.85;1.65;;;20.70;48.10;;;;;;5074111;28;43457;-61
2022/04/30 13:22:20;;;;;;;1.42;1.33;;;20.70;48.20;;;;;;5088043;27;43478;-60
2022/04/30 13:24:48;;;;;;;2.05;1.73;;;20.70;48.10;;;;;;5070709;28;43466;-61
2022/04/30 13:27:15;;;;;;;1.80;1.70;;;20.70;48.10;;;;;;5079029;28;45024;-61
2022/04/30 13:29:42;;;;;;;2.22;1.65;;;20.80;48.10;;;;;;5072291;28;43778;-61
2022/04/30 13:32:15;;;;;;;2.70;1.70;;;20.70;48.10;;;;;;5070002;28;43437;-61
2022/04/30 13:34:42;;;;;;;1.95;1.77;;;20.80;48.10;;;;;;5071401;28;43539;-60
2022/04/30 13:37:10;;;;;;;1.92;1.80;;;20.80;48.10;;;;;;5091213;27;44698;-61
2022/04/30 13:39:38;;;;;;;2.05;1.77;;;20.80;48.00;;;;;;5069262;28;43449;-60
2022/04/30 13:42:06;;;;;;;1.80;1.70;;;20.80;48.10;;;;;;5070705;27;43422;-61
2022/04/30 13:44:33;;;;;;;1.70;1.60;;;20.90;48.10;;;;;;5063361;28;43489;-60
2022/04/30 13:47:02;;;;;;;2.22;1.55;;;20.90;48.10;;;;;;5074737;28;44680;-61
2022/04/30 13:49:29;;;;;;;1.70;1.60;;;20.90;48.00;;;;;;5065819;28;43856;-60